Latest Coastal Weather Observations for Wilsons Promontory

IDV60701

Issued at 6:15 pm EDT Friday 28 November 2014 (issued every 10 minutes, with the page automatically refreshed every 10 minutes)

About coastal observations | Map of coastal stations | Coastal observations for VIC | Marine services | Other Formats
Station Details ID: 085096 Name: WILSONS PROMONTORY LIGHTHOUSE Lat: -39.13 Lon: 146.42 Height: 95.0 m
Data from the previous 72 hours. | See also: Recent months at Wilsons Promontory
Date/Time
EDT
Temp

°C
Wind Pressure Rain
since 9am
mm
Weather Cloud Vis
km
Sea
Height
m
Swell
Dir
 
Speed
knots
Gust
knots
hPa Trend Height
m
Period
s
Dir
28/06:00pm 15.5 SW 11 13 1019.9 - 0.0 - - - - - - -
28/05:30pm 15.6 SW 11 13 1019.8 - 0.0 - - - - - - -
28/05:00pm 15.5 SW 13 16 1019.8 - 0.0 - - - - - - -
28/04:30pm 15.4 SW 15 17 1019.9 - 0.0 - - - - - - -
28/04:00pm 15.7 SW 16 19 1020.1 - 0.0 - - - - - - -
28/03:30pm 15.4 WSW 15 19 1020.3 - 0.0 - - - - - - -
28/03:00pm 15.5 W 10 17 1020.7 - 0.0 - - - - - - -
28/02:30pm 16.2 ENE 6 10 1021.1 - 0.0 - - - - - - -
28/02:00pm 16.3 ENE 6 12 1021.3 - 0.0 - - - - - - -
28/01:30pm 17.2 NE 4 8 1021.7 - 0.0 - - - - - - -
28/01:00pm 15.2 E 6 12 1022.1 - 0.0 - - - - - - -
28/12:30pm 16.2 W 5 10 1022.4 - 0.0 - - - - - - -
28/12:00pm 15.4 E 7 9 1022.7 - 0.0 - - - - - - -
28/11:30am 15.7 E 7 9 1022.6 - 0.0 - - - - - - -
28/11:00am 14.9 ENE 7 9 1022.6 - 0.0 - - - - - - -
28/10:30am 15.9 NE 7 10 1022.7 - 0.0 - - - - - - -
28/10:00am 15.1 ENE 6 7 1022.9 - 0.0 - - - - - - -
28/09:30am 15.4 ENE 7 8 1022.9 - 0.0 - - - - - - -
28/09:00am 13.7 WSW 10 14 1023.0 - 0.0 - - - - - - -
28/08:30am 14.6 SE 3 6 1023.1 - 0.0 - - - - - - -
28/08:00am 15.0 E 4 6 1023.0 - 0.0 - - - - - - -
28/07:30am 14.4 NE 5 7 1023.0 - 0.0 - - - - - - -
28/07:00am 14.2 NE 4 5 1022.6 - 0.0 - - - - - - -
28/06:30am 12.7 N 2 6 1022.5 - 0.0 - - - - - - -
28/06:00am 11.0 N 6 7 1022.4 - 0.0 - - - - - - -
28/05:30am 11.0 NW 7 10 1022.2 - 0.0 - - - - - - -
28/05:00am 11.2 NW 7 11 1022.2 - 0.0 - - - - - - -
28/04:30am 11.2 WNW 6 8 1022.1 - 0.0 - - - - - - -
28/04:00am 11.3 CALM 0 0 1022.0 - 0.0 - - - - - - -
28/03:30am 11.5 WSW 1 3 1022.1 - 0.0 - - - - - - -
28/03:00am 11.4 WNW 5 8 1022.1 - 0.0 - - - - - - -
28/02:30am 11.6 NW 5 8 1022.3 - 0.0 - - - - - - -
28/02:00am 11.6 N 5 8 1022.4 - 0.0 - - - - - - -
28/01:30am 11.4 NNW 4 6 1022.7 - 0.0 - - - - - - -
28/01:00am 11.2 NNE 3 4 1023.1 - 0.0 - - - - - - -
28/12:30am 11.6 NE 2 4 1023.4 - 0.0 - - - - - - -
28/12:00am 11.4 N 4 5 1023.6 - 0.0 - - - - - - -
 
Date/Time
EDT
Temp

°C
Wind Pressure Rain
since 9am
mm
Weather Cloud Vis
km
Sea
Height
m
Swell
Dir
 
Speed
knots
Gust
knots
hPa Trend Height
m
Period
s
Dir
27/11:30pm 11.7 WNW 8 13 1023.6 - 0.0 - - - - - - -
27/11:00pm 12.0 WNW 9 14 1023.8 - 0.0 - - - - - - -
27/10:30pm 12.1 WNW 12 16 1023.9 - 0.0 - - - - - - -
27/10:00pm 12.2 WNW 13 18 1023.8 - 0.0 - - - - - - -
27/09:30pm 12.2 WNW 13 17 1023.8 - 0.0 - - - - - - -
27/09:00pm 12.5 W 20 23 1023.4 - 0.0 - - - - - - -
27/08:30pm 12.6 W 18 23 1023.2 - 0.0 - - - - - - -
27/08:12pm 12.8 W 19 29 1023.4 - 0.0 - - - - - - -
27/08:00pm 13.1 W 20 25 1023.2 - 0.0 - - - - - - -
27/07:30pm 13.8 W 19 25 1023.2 - 0.0 - - - - - - -
27/07:00pm 14.2 W 13 22 1023.0 - 0.0 - - - - - - -
27/06:30pm 14.4 W 17 23 1023.0 - 0.0 - - - - - - -
27/06:00pm 14.5 W 15 20 1022.8 - 0.0 - - - - - - -
27/05:30pm 14.6 W 19 23 1022.9 - 0.0 - - - - - - -
27/05:00pm 15.0 W 17 24 1023.2 - 0.0 - - - - - - -
27/04:30pm 14.9 W 16 23 1023.3 - 0.0 - - - - - - -
27/04:00pm 14.2 W 18 24 1023.6 - 0.0 - - - - - - -
27/03:30pm 14.6 W 19 24 1023.7 - 0.0 - - - - - - -
27/03:00pm 13.7 WSW 19 27 1023.9 - 0.0 - - - - - - -
27/02:30pm 14.0 WSW 18 25 1024.2 - 0.0 - - - - - - -
27/02:00pm 13.7 WSW 19 25 1024.5 - 0.0 - - - - - - -
27/01:30pm 13.4 WSW 21 26 1024.3 - 0.0 - - - - - - -
27/01:00pm 13.3 WSW 20 25 1024.5 - 0.0 - - - - - - -
27/12:30pm 13.4 WSW 19 25 1024.6 - 0.0 - - - - - - -
27/12:00pm 13.4 WSW 19 24 1024.8 - 0.0 - - - - - - -
27/11:30am 13.3 WSW 20 25 1024.7 - 0.0 - - - - - - -
27/11:00am 13.6 WSW 21 26 1024.7 - 0.0 - - - - - - -
27/10:30am 13.2 WSW 18 23 1024.5 - 0.0 - - - - - - -
27/10:00am 13.3 WSW 16 22 1024.7 - 0.0 - - - - - - -
27/09:30am 12.9 WSW 19 23 1024.6 - 0.0 - - - - - - -
27/09:00am 12.7 WSW 17 22 1024.5 - 2.2 - - - - - - -
27/08:30am 12.8 WSW 16 20 1024.5 - 2.2 - - - - - - -
27/08:00am 12.4 WSW 16 21 1024.0 - 2.2 - - - - - - -
27/07:30am 12.0 SW 17 25 1023.5 - 2.2 - - - - - - -
27/07:00am 12.1 SW 18 26 1023.2 - 2.2 - - - - - - -
27/06:31am 11.9 SW 21 31 1022.9 - 2.2 - - - - - - -
27/06:30am 11.8 SW 22 31 1022.9 - 2.2 - - - - - - -
27/06:00am 11.6 SW 24 28 1022.6 - 2.2 - - - - - - -
27/05:30am 11.8 SW 27 31 1022.3 - 2.2 - - - - - - -
27/05:00am 11.6 WSW 25 31 1021.8 - 2.2 - - - - - - -
27/04:54am 11.8 WSW 20 30 1021.8 - 2.2 - - - - - - -
27/04:30am 11.7 WSW 26 32 1021.5 - 2.2 - - - - - - -
27/04:26am 11.8 WSW 24 31 1021.6 - 2.2 - - - - - - -
27/04:13am 11.9 SW 21 31 1021.6 - 2.2 - - - - - - -
27/04:00am 11.8 WSW 23 31 1021.6 - 2.2 - - - - - - -
27/03:30am 11.9 WSW 24 32 1021.4 - 2.2 - - - - - - -
27/03:00am 12.1 WSW 26 33 1021.6 - 2.2 - - - - - - -
27/02:30am 12.2 WSW 27 31 1021.7 - 2.2 - - - - - - -
27/02:00am 12.2 SW 27 32 1021.9 - 2.2 - - - - - - -
27/01:30am 12.3 WSW 26 32 1021.9 - 2.2 - - - - - - -
27/01:00am 12.3 WSW 28 35 1021.9 - 2.2 - - - - - - -
27/12:39am 12.4 WSW 22 33 1022.0 - 2.2 - - - - - - -
27/12:30am 12.5 SW 25 32 1022.0 - 2.2 - - - - - - -
27/12:01am 12.5 W 22 32 1021.7 - 2.2 - - - - - - -
27/12:00am 12.6 W 21 30 1021.8 - 2.2 - - - - - - -
 
Date/Time
EDT
Temp

°C
Wind Pressure Rain
since 9am
mm
Weather Cloud Vis
km
Sea
Height
m
Swell
Dir
 
Speed
knots
Gust
knots
hPa Trend Height
m
Period
s
Dir
26/11:50pm 12.4 WSW 24 34 1021.9 - 2.2 - - - - - - -
26/11:30pm 12.6 WSW 28 39 1021.5 - 2.2 - - - - - - -
26/11:28pm 12.6 WSW 25 39 1021.8 - 2.2 - - - - - - -
26/11:27pm 12.6 W 23 40 1021.9 - 2.2 - - - - - - -
26/11:21pm 12.5 WSW 35 40 1021.1 - 2.2 - - - - - - -
26/11:14pm 12.6 WSW 25 36 1021.3 - 2.2 - - - - - - -
26/11:08pm 12.6 WSW 25 39 1021.6 - 2.2 - - - - - - -
26/11:00pm 12.5 SW 38 43 1021.1 - 2.2 - - - - - - -
26/10:54pm 12.5 SW 40 43 1020.8 - 2.2 - - - - - - -
26/10:34pm 12.8 WSW 28 39 1021.2 - 2.2 - - - - - - -
26/10:30pm 12.8 WSW 25 34 1021.4 - 2.2 - - - - - - -
26/10:00pm 12.7 WSW 27 37 1021.1 - 2.2 - - - - - - -
26/09:34pm 12.7 WSW 28 39 1020.7 - 2.2 - - - - - - -
26/09:30pm 12.6 WSW 29 38 1020.8 - 2.2 - - - - - - -
26/09:02pm 12.6 W 26 36 1020.7 - 2.2 - - - - - - -
26/09:00pm 12.8 W 27 36 1020.8 - 2.2 - - - - - - -
26/08:46pm 12.8 WSW 30 40 1020.6 - 2.2 - - - - - - -
26/08:30pm 12.9 WSW 31 38 1020.3 - 2.2 - - - - - - -
26/08:03pm 12.9 WSW 31 41 1020.4 - 2.2 - - - - - - -
26/08:00pm 12.9 WSW 32 41 1020.3 - 2.2 - - - - - - -
26/07:36pm 13.0 WSW 28 40 1020.0 - 2.2 - - - - - - -
26/07:30pm 13.3 WSW 26 34 1020.1 - 2.2 - - - - - - -
26/07:11pm 13.4 WSW 29 39 1019.9 - 2.2 - - - - - - -
26/07:00pm 13.4 WSW 30 39 1019.6 - 2.2 - - - - - - -
26/06:35pm 13.7 WSW 28 38 1019.5 - 2.2 - - - - - - -
26/06:30pm 13.6 WSW 30 38 1019.3 - 2.2 - - - - - - -
26/06:11pm 13.5 WSW 31 41 1019.2 - 2.2 - - - - - - -
26/06:00pm 13.4 WSW 31 39 1018.9 - 2.2 - - - - - - -
26/05:30pm 13.5 W 29 41 1018.7 - 2.2 - - - - - - -
26/05:11pm 13.3 WSW 29 40 1019.0 - 2.2 - - - - - - -
26/05:00pm 13.5 W 25 33 1019.2 - 2.2 - - - - - - -
26/04:30pm 13.4 WSW 28 38 1018.9 - 2.2 - - - - - - -
26/04:00pm 14.1 W 26 37 1019.0 - 2.2 - - - - - - -
26/03:30pm 13.9 WSW 27 38 1018.9 - 2.2 - - - - - - -
26/03:10pm 13.8 W 25 35 1018.9 - 2.2 - - - - - - -
26/03:00pm 14.7 W 24 32 1019.2 - 2.2 - - - - - - -
26/02:40pm 14.5 WSW 27 37 1019.2 - 2.2 - - - - - - -
26/02:30pm 14.2 WSW 30 38 1018.7 - 2.2 - - - - - - -
26/02:06pm 14.1 WSW 29 39 1019.0 - 2.2 - - - - - - -
26/02:00pm 13.9 WSW 34 39 1018.6 - 2.2 - - - - - - -
26/01:49pm 14.0 WSW 33 36 1018.7 - 2.2 - - - - - - -
26/01:30pm 14.3 W 22 34 1018.9 - 2.2 - - - - - - -
26/01:26pm 14.4 WSW 25 35 1018.9 - 2.2 - - - - - - -
26/01:00pm 13.8 WSW 29 36 1018.5 - 2.2 - - - - - - -
26/12:30pm 12.8 SW 33 38 1018.5 - 2.2 - - - - - - -
26/12:29pm 12.8 SW 33 38 1018.4 - 2.2 - - - - - - -
26/12:00pm 12.5 W 25 37 1018.0 - 2.2 - - - - - - -
26/11:30am 12.7 W 23 35 1018.1 - 1.6 - - - - - - -
26/11:00am 13.6 W 21 35 1018.0 - 0.0 - - - - - - -
26/10:30am 14.5 W 23 35 1017.9 - 0.0 - - - - - - -
26/10:08am 14.4 W 24 36 1017.9 - 0.0 - - - - - - -
26/10:00am 14.5 W 25 32 1018.0 - 0.0 - - - - - - -
26/09:30am 14.4 W 23 33 1018.3 - 0.0 - - - - - - -
26/09:00am 14.3 W 24 34 1018.2 - 0.0 - - - - - - -
26/08:30am 14.0 W 22 35 1018.1 - 0.0 - - - - - - -
26/08:25am 13.9 W 22 35 1017.9 - 0.0 - - - - - - -
26/08:00am 13.7 W 23 32 1017.8 - 0.0 - - - - - - -
26/07:34am 13.7 W 23 33 1017.7 - 0.0 - - - - - - -
26/07:30am 13.6 W 24 33 1017.7 - 0.0 - - - - - - -
26/07:00am 13.5 W 21 31 1017.5 - 0.0 - - - - - - -
26/06:30am 13.4 W 22 33 1017.4 - 0.0 - - - - - - -
26/06:00am 13.4 W 22 34 1017.2 - 0.0 - - - - - - -
26/05:30am 13.2 W 17 28 1017.3 - 0.0 - - - - - - -
26/05:00am 13.3 W 19 29 1017.2 - 0.0 - - - - - - -
26/04:33am 13.1 W 21 31 1017.0 - 0.0 - - - - - - -
26/04:30am 13.2 W 21 29 1016.9 - 0.0 - - - - - - -
26/04:06am 13.1 W 20 30 1016.9 - 0.0 - - - - - - -
26/04:00am 13.1 W 21 30 1016.9 - 0.0 - - - - - - -
26/03:30am 13.1 W 21 34 1017.0 - 0.0 - - - - - - -
26/03:03am 12.9 W 19 29 1017.0 - 0.0 - - - - - - -
26/03:00am 13.0 W 18 27 1017.0 - 0.0 - - - - - - -
26/02:31am 12.9 W 18 29 1017.3 - 0.0 - - - - - - -
26/02:30am 12.9 W 17 24 1017.4 - 0.0 - - - - - - -
26/02:00am 12.9 W 16 27 1017.3 - 0.0 - - - - - - -
26/01:30am 13.2 W 19 26 1017.6 - 0.0 - - - - - - -
26/01:08am 13.3 W 17 27 1018.0 - 0.0 - - - - - - -
26/01:00am 13.2 W 19 26 1018.0 - 0.0 - - - - - - -
26/12:34am 13.3 W 22 33 1017.9 - 0.0 - - - - - - -
26/12:30am 13.4 W 21 30 1017.9 - 0.0 - - - - - - -
26/12:29am 13.4 W 20 30 1018.0 - 0.0 - - - - - - -
26/12:00am 13.5 W 19 28 1018.3 - 0.0 - - - - - - -
 
Date/Time
EDT
Temp

°C
Wind Pressure Rain
since 9am
mm
Weather Cloud Vis
km
Sea
Height
m
Swell
Dir
 
Speed
knots
Gust
knots
hPa Trend Height
m
Period
s
Dir
25/11:39pm 13.5 W 17 27 1018.3 - 0.0 - - - - - - -
25/11:30pm 13.3 W 18 27 1018.4 - 0.0 - - - - - - -
25/11:00pm 13.4 W 28 39 1018.1 - 0.0 - - - - - - -
25/10:51pm 13.4 W 26 37 1018.1 - 0.0 - - - - - - -
25/10:30pm 13.3 W 24 31 1018.3 - 0.0 - - - - - - -
25/10:04pm 13.5 W 21 31 1018.6 - 0.0 - - - - - - -
25/10:00pm 13.5 W 23 32 1018.5 - 0.0 - - - - - - -
25/09:38pm 13.5 W 25 37 1018.1 - 0.0 - - - - - - -
25/09:30pm 13.4 W 25 34 1018.1 - 0.0 - - - - - - -
25/09:00pm 13.4 W 26 37 1017.6 - 0.0 - - - - - - -
25/08:30pm 13.2 W 26 37 1017.7 - 0.0 - - - - - - -
25/08:06pm 13.1 W 30 40 1017.4 - 0.0 - - - - - - -
25/08:00pm 13.0 W 32 40 1017.0 - 0.0 - - - - - - -
25/07:30pm 13.4 W 23 34 1017.2 - 0.0 - - - - - - -
25/07:00pm 13.7 W 27 40 1016.8 - 0.0 - - - - - - -
25/06:30pm 14.3 W 28 38 1016.0 - 0.0 - - - - - - -

Other Formats:

Comma delimited format used in spreadsheet applications
http://www.bom.gov.au/fwo/IDV60701/IDV60701.94893.axf

JavaScript Object Notation format (JSON) in row-major order
http://www.bom.gov.au/fwo/IDV60701/IDV60701.94893.json